sensor_id;sensor_type;location;lat;lon;timestamp;P1;durP1;ratioP1;P2;durP2;ratioP2
65753;SDS011;69207;47.502;18.940;2023-05-07T00:00:10;2.80;;;2.40;;
65753;SDS011;69207;47.502;18.940;2023-05-07T00:01:14;4.95;;;2.58;;
65753;SDS011;69207;47.502;18.940;2023-05-07T00:02:19;3.30;;;2.92;;
65753;SDS011;69207;47.502;18.940;2023-05-07T00:03:22;3.35;;;2.58;;
65753;SDS011;69207;47.502;18.940;2023-05-07T00:04:26;3.33;;;2.70;;
65753;SDS011;69207;47.502;18.940;2023-05-07T00:05:30;3.33;;;2.65;;
65753;SDS011;69207;47.502;18.940;2023-05-07T00:06:33;4.57;;;2.75;;
65753;SDS011;69207;47.502;18.940;2023-05-07T00:07:36;3.78;;;3.05;;
65753;SDS011;69207;47.502;18.940;2023-05-07T00:08:39;4.18;;;3.45;;
65753;SDS011;69207;47.502;18.940;2023-05-07T00:09:42;4.75;;;3.22;;
65753;SDS011;69207;47.502;18.940;2023-05-07T00:10:45;5.82;;;3.15;;
65753;SDS011;69207;47.502;18.940;2023-05-07T00:11:48;6.47;;;3.47;;
65753;SDS011;69207;47.502;18.940;2023-05-07T00:12:51;4.57;;;3.20;;
65753;SDS011;69207;47.502;18.940;2023-05-07T00:13:54;3.47;;;3.17;;
65753;SDS011;69207;47.502;18.940;2023-05-07T00:14:57;4.87;;;3.15;;
65753;SDS011;69207;47.502;18.940;2023-05-07T00:16:01;4.35;;;3.05;;
65753;SDS011;69207;47.502;18.940;2023-05-07T00:17:04;4.07;;;3.03;;
65753;SDS011;69207;47.502;18.940;2023-05-07T00:18:07;3.97;;;3.00;;
65753;SDS011;69207;47.502;18.940;2023-05-07T00:19:10;4.57;;;3.22;;
65753;SDS011;69207;47.502;18.940;2023-05-07T00:20:13;3.58;;;2.80;;
65753;SDS011;69207;47.502;18.940;2023-05-07T00:21:16;3.00;;;2.70;;
65753;SDS011;69207;47.502;18.940;2023-05-07T00:22:19;3.62;;;2.60;;
65753;SDS011;69207;47.502;18.940;2023-05-07T00:23:22;3.62;;;2.85;;
65753;SDS011;69207;47.502;18.940;2023-05-07T00:24:25;3.72;;;2.62;;
65753;SDS011;69207;47.502;18.940;2023-05-07T00:25:28;4.22;;;2.55;;
65753;SDS011;69207;47.502;18.940;2023-05-07T00:26:31;3.85;;;2.35;;
65753;SDS011;69207;47.502;18.940;2023-05-07T00:27:33;3.87;;;2.72;;
65753;SDS011;69207;47.502;18.940;2023-05-07T00:28:36;2.62;;;2.40;;
65753;SDS011;69207;47.502;18.940;2023-05-07T00:29:39;2.80;;;2.50;;
65753;SDS011;69207;47.502;18.940;2023-05-07T00:30:42;4.40;;;2.60;;
65753;SDS011;69207;47.502;18.940;2023-05-07T00:31:45;3.20;;;2.40;;
65753;SDS011;69207;47.502;18.940;2023-05-07T00:32:48;2.65;;;2.45;;
65753;SDS011;69207;47.502;18.940;2023-05-07T00:33:51;4.65;;;2.45;;
65753;SDS011;69207;47.502;18.940;2023-05-07T00:34:54;3.47;;;2.55;;
65753;SDS011;69207;47.502;18.940;2023-05-07T00:35:57;3.97;;;2.67;;
65753;SDS011;69207;47.502;18.940;2023-05-07T00:37:01;2.85;;;2.55;;
65753;SDS011;69207;47.502;18.940;2023-05-07T00:38:07;3.08;;;2.78;;
65753;SDS011;69207;47.502;18.940;2023-05-07T00:39:10;4.30;;;2.90;;
65753;SDS011;69207;47.502;18.940;2023-05-07T00:40:13;2.85;;;2.58;;
65753;SDS011;69207;47.502;18.940;2023-05-07T00:41:16;3.00;;;2.70;;
65753;SDS011;69207;47.502;18.940;2023-05-07T00:42:19;4.03;;;2.70;;
65753;SDS011;69207;47.502;18.940;2023-05-07T00:43:23;2.55;;;2.35;;
65753;SDS011;69207;47.502;18.940;2023-05-07T00:44:25;2.80;;;2.50;;
65753;SDS011;69207;47.502;18.940;2023-05-07T00:45:28;2.55;;;2.35;;
65753;SDS011;69207;47.502;18.940;2023-05-07T00:46:32;3.28;;;2.60;;
65753;SDS011;69207;47.502;18.940;2023-05-07T00:47:35;4.25;;;2.70;;
65753;SDS011;69207;47.502;18.940;2023-05-07T00:48:38;3.90;;;2.35;;
65753;SDS011;69207;47.502;18.940;2023-05-07T00:49:42;3.30;;;2.35;;
65753;SDS011;69207;47.502;18.940;2023-05-07T00:50:45;2.37;;;2.17;;
65753;SDS011;69207;47.502;18.940;2023-05-07T00:51:49;3.90;;;2.20;;
65753;SDS011;69207;47.502;18.940;2023-05-07T00:52:52;5.80;;;2.70;;
65753;SDS011;69207;47.502;18.940;2023-05-07T00:53:55;2.75;;;2.55;;
65753;SDS011;69207;47.502;18.940;2023-05-07T00:55:00;3.17;;;2.75;;
65753;SDS011;69207;47.502;18.940;2023-05-07T00:56:07;3.78;;;2.50;;
65753;SDS011;69207;47.502;18.940;2023-05-07T00:57:11;3.85;;;2.90;;
65753;SDS011;69207;47.502;18.940;2023-05-07T00:58:14;3.40;;;2.67;;
65753;SDS011;69207;47.502;18.940;2023-05-07T00:59:17;3.20;;;2.62;;
65753;SDS011;69207;47.502;18.940;2023-05-07T01:00:20;2.62;;;2.42;;
65753;SDS011;69207;47.502;18.940;2023-05-07T01:01:23;3.45;;;2.40;;
65753;SDS011;69207;47.502;18.940;2023-05-07T01:02:26;3.95;;;2.67;;
65753;SDS011;69207;47.502;18.940;2023-05-07T01:03:29;2.83;;;2.53;;
65753;SDS011;69207;47.502;18.940;2023-05-07T01:04:32;2.50;;;2.30;;
65753;SDS011;69207;47.502;18.940;2023-05-07T01:05:36;4.55;;;2.45;;
65753;SDS011;69207;47.502;18.940;2023-05-07T01:06:39;3.33;;;2.80;;
65753;SDS011;69207;47.502;18.940;2023-05-07T01:07:43;3.90;;;2.45;;
65753;SDS011;69207;47.502;18.940;2023-05-07T01:08:47;2.92;;;2.47;;
65753;SDS011;69207;47.502;18.940;2023-05-07T01:09:50;2.75;;;2.37;;
65753;SDS011;69207;47.502;18.940;2023-05-07T01:10:54;3.22;;;2.40;;
65753;SDS011;69207;47.502;18.940;2023-05-07T01:11:59;2.55;;;2.35;;
65753;SDS011;69207;47.502;18.940;2023-05-07T01:13:02;2.53;;;2.33;;
65753;SDS011;69207;47.502;18.940;2023-05-07T01:14:05;2.75;;;2.50;;
65753;SDS011;69207;47.502;18.940;2023-05-07T01:15:09;4.37;;;2.70;;
65753;SDS011;69207;47.502;18.940;2023-05-07T01:16:12;3.28;;;2.70;;
65753;SDS011;69207;47.502;18.940;2023-05-07T01:17:16;2.90;;;2.60;;
65753;SDS011;69207;47.502;18.940;2023-05-07T01:18:19;5.65;;;2.72;;
65753;SDS011;69207;47.502;18.940;2023-05-07T01:19:22;3.10;;;2.70;;
65753;SDS011;69207;47.502;18.940;2023-05-07T01:20:25;3.17;;;2.87;;
65753;SDS011;69207;47.502;18.940;2023-05-07T01:21:28;3.22;;;2.80;;
65753;SDS011;69207;47.502;18.940;2023-05-07T01:22:38;3.28;;;2.97;;
65753;SDS011;69207;47.502;18.940;2023-05-07T01:23:42;5.00;;;2.55;;
65753;SDS011;69207;47.502;18.940;2023-05-07T01:24:45;4.47;;;2.47;;
65753;SDS011;69207;47.502;18.940;2023-05-07T01:25:53;5.35;;;3.20;;
65753;SDS011;69207;47.502;18.940;2023-05-07T01:26:57;3.40;;;3.10;;
65753;SDS011;69207;47.502;18.940;2023-05-07T01:27:59;4.35;;;2.72;;
65753;SDS011;69207;47.502;18.940;2023-05-07T01:29:03;4.25;;;2.85;;
65753;SDS011;69207;47.502;18.940;2023-05-07T01:30:06;3.50;;;2.80;;
65753;SDS011;69207;47.502;18.940;2023-05-07T01:31:10;3.90;;;3.00;;
65753;SDS011;69207;47.502;18.940;2023-05-07T01:32:15;3.00;;;2.70;;
65753;SDS011;69207;47.502;18.940;2023-05-07T01:33:32;3.22;;;2.85;;
65753;SDS011;69207;47.502;18.940;2023-05-07T01:34:37;3.25;;;2.70;;
65753;SDS011;69207;47.502;18.940;2023-05-07T01:35:41;3.45;;;2.47;;
65753;SDS011;69207;47.502;18.940;2023-05-07T01:36:47;7.10;;;2.67;;
65753;SDS011;69207;47.502;18.940;2023-05-07T01:37:51;2.60;;;2.40;;
65753;SDS011;69207;47.502;18.940;2023-05-07T01:38:54;3.95;;;2.85;;
65753;SDS011;69207;47.502;18.940;2023-05-07T01:39:56;3.00;;;2.50;;
65753;SDS011;69207;47.502;18.940;2023-05-07T01:41:00;2.50;;;2.30;;
65753;SDS011;69207;47.502;18.940;2023-05-07T01:42:02;3.35;;;3.05;;
65753;SDS011;69207;47.502;18.940;2023-05-07T01:43:06;4.70;;;2.97;;
65753;SDS011;69207;47.502;18.940;2023-05-07T01:44:09;4.30;;;3.47;;
65753;SDS011;69207;47.502;18.940;2023-05-07T01:45:14;4.47;;;2.97;;
65753;SDS011;69207;47.502;18.940;2023-05-07T01:46:17;2.67;;;2.47;;
65753;SDS011;69207;47.502;18.940;2023-05-07T01:47:21;5.53;;;2.62;;
65753;SDS011;69207;47.502;18.940;2023-05-07T01:48:25;2.90;;;2.70;;
65753;SDS011;69207;47.502;18.940;2023-05-07T01:49:28;3.65;;;2.90;;
65753;SDS011;69207;47.502;18.940;2023-05-07T01:50:31;5.70;;;2.87;;
65753;SDS011;69207;47.502;18.940;2023-05-07T01:51:35;4.60;;;2.70;;
65753;SDS011;69207;47.502;18.940;2023-05-07T01:52:38;4.87;;;2.78;;
65753;SDS011;69207;47.502;18.940;2023-05-07T01:53:41;4.90;;;2.65;;
65753;SDS011;69207;47.502;18.940;2023-05-07T01:54:46;4.45;;;2.72;;
65753;SDS011;69207;47.502;18.940;2023-05-07T01:55:48;5.28;;;2.90;;
65753;SDS011;69207;47.502;18.940;2023-05-07T01:56:52;3.72;;;2.70;;
65753;SDS011;69207;47.502;18.940;2023-05-07T01:57:54;3.70;;;2.75;;
65753;SDS011;69207;47.502;18.940;2023-05-07T01:58:57;3.25;;;2.67;;
65753;SDS011;69207;47.502;18.940;2023-05-07T02:00:00;3.30;;;2.92;;
65753;SDS011;69207;47.502;18.940;2023-05-07T02:01:03;3.65;;;2.95;;
65753;SDS011;69207;47.502;18.940;2023-05-07T02:02:06;3.67;;;2.72;;
65753;SDS011;69207;47.502;18.940;2023-05-07T02:03:09;4.70;;;2.37;;
65753;SDS011;69207;47.502;18.940;2023-05-07T02:04:12;3.58;;;2.95;;
65753;SDS011;69207;47.502;18.940;2023-05-07T02:05:15;3.05;;;2.75;;
65753;SDS011;69207;47.502;18.940;2023-05-07T02:06:18;3.33;;;2.75;;
65753;SDS011;69207;47.502;18.940;2023-05-07T02:07:21;4.78;;;3.28;;
65753;SDS011;69207;47.502;18.940;2023-05-07T02:08:24;3.25;;;2.95;;
65753;SDS011;69207;47.502;18.940;2023-05-07T02:09:27;3.28;;;2.90;;
65753;SDS011;69207;47.502;18.940;2023-05-07T02:10:30;3.15;;;2.50;;
65753;SDS011;69207;47.502;18.940;2023-05-07T02:11:33;3.45;;;2.80;;
65753;SDS011;69207;47.502;18.940;2023-05-07T02:12:36;3.12;;;2.70;;
65753;SDS011;69207;47.502;18.940;2023-05-07T02:13:38;3.28;;;2.87;;
65753;SDS011;69207;47.502;18.940;2023-05-07T02:14:41;4.85;;;2.67;;
65753;SDS011;69207;47.502;18.940;2023-05-07T02:15:44;2.75;;;2.50;;
65753;SDS011;69207;47.502;18.940;2023-05-07T02:16:51;2.60;;;2.40;;
65753;SDS011;69207;47.502;18.940;2023-05-07T02:17:58;4.45;;;2.25;;
65753;SDS011;69207;47.502;18.940;2023-05-07T02:19:02;2.67;;;2.40;;
65753;SDS011;69207;47.502;18.940;2023-05-07T02:20:05;3.55;;;2.60;;
65753;SDS011;69207;47.502;18.940;2023-05-07T02:21:09;2.80;;;2.25;;
65753;SDS011;69207;47.502;18.940;2023-05-07T02:22:12;2.40;;;2.20;;
65753;SDS011;69207;47.502;18.940;2023-05-07T02:23:15;2.30;;;1.90;;
65753;SDS011;69207;47.502;18.940;2023-05-07T02:24:17;2.75;;;2.20;;
65753;SDS011;69207;47.502;18.940;2023-05-07T02:25:20;2.70;;;2.22;;
65753;SDS011;69207;47.502;18.940;2023-05-07T02:26:23;2.35;;;2.15;;
65753;SDS011;69207;47.502;18.940;2023-05-07T02:27:26;3.53;;;2.45;;
65753;SDS011;69207;47.502;18.940;2023-05-07T02:28:29;2.95;;;2.65;;
65753;SDS011;69207;47.502;18.940;2023-05-07T02:29:32;5.10;;;2.45;;
65753;SDS011;69207;47.502;18.940;2023-05-07T02:30:35;2.30;;;2.10;;
65753;SDS011;69207;47.502;18.940;2023-05-07T02:31:39;2.28;;;2.08;;
65753;SDS011;69207;47.502;18.940;2023-05-07T02:32:42;2.58;;;2.33;;
65753;SDS011;69207;47.502;18.940;2023-05-07T02:33:45;2.55;;;2.25;;
65753;SDS011;69207;47.502;18.940;2023-05-07T02:34:49;4.20;;;2.40;;
65753;SDS011;69207;47.502;18.940;2023-05-07T02:35:53;3.17;;;2.47;;
65753;SDS011;69207;47.502;18.940;2023-05-07T02:36:56;2.50;;;2.30;;
65753;SDS011;69207;47.502;18.940;2023-05-07T02:37:59;2.80;;;2.30;;
65753;SDS011;69207;47.502;18.940;2023-05-07T02:39:02;3.17;;;2.40;;
65753;SDS011;69207;47.502;18.940;2023-05-07T02:40:06;2.72;;;2.20;;
65753;SDS011;69207;47.502;18.940;2023-05-07T02:41:09;4.00;;;2.42;;
65753;SDS011;69207;47.502;18.940;2023-05-07T02:42:12;3.65;;;2.40;;
65753;SDS011;69207;47.502;18.940;2023-05-07T02:43:15;3.47;;;2.20;;
65753;SDS011;69207;47.502;18.940;2023-05-07T02:44:18;3.50;;;2.60;;
65753;SDS011;69207;47.502;18.940;2023-05-07T02:45:20;4.32;;;2.40;;
65753;SDS011;69207;47.502;18.940;2023-05-07T02:46:23;2.90;;;2.45;;
65753;SDS011;69207;47.502;18.940;2023-05-07T02:47:26;4.93;;;2.37;;
65753;SDS011;69207;47.502;18.940;2023-05-07T02:48:30;3.50;;;2.03;;
65753;SDS011;69207;47.502;18.940;2023-05-07T02:49:33;2.33;;;1.90;;
65753;SDS011;69207;47.502;18.940;2023-05-07T02:50:36;3.33;;;2.30;;
65753;SDS011;69207;47.502;18.940;2023-05-07T02:51:39;4.15;;;2.75;;
65753;SDS011;69207;47.502;18.940;2023-05-07T02:52:41;2.42;;;2.17;;
65753;SDS011;69207;47.502;18.940;2023-05-07T02:53:44;3.40;;;2.35;;
65753;SDS011;69207;47.502;18.940;2023-05-07T02:54:48;4.45;;;2.50;;
65753;SDS011;69207;47.502;18.940;2023-05-07T02:55:52;2.47;;;2.22;;
65753;SDS011;69207;47.502;18.940;2023-05-07T02:56:58;3.22;;;2.40;;
65753;SDS011;69207;47.502;18.940;2023-05-07T02:58:03;4.68;;;2.65;;
65753;SDS011;69207;47.502;18.940;2023-05-07T02:59:06;3.30;;;2.50;;
65753;SDS011;69207;47.502;18.940;2023-05-07T03:00:16;3.55;;;2.78;;
65753;SDS011;69207;47.502;18.940;2023-05-07T03:01:20;3.85;;;2.45;;
65753;SDS011;69207;47.502;18.940;2023-05-07T03:02:23;3.40;;;2.30;;
65753;SDS011;69207;47.502;18.940;2023-05-07T03:03:26;3.08;;;2.78;;
65753;SDS011;69207;47.502;18.940;2023-05-07T03:04:29;3.45;;;2.42;;
65753;SDS011;69207;47.502;18.940;2023-05-07T03:05:31;4.97;;;2.30;;
65753;SDS011;69207;47.502;18.940;2023-05-07T03:06:34;3.40;;;2.50;;
65753;SDS011;69207;47.502;18.940;2023-05-07T03:07:37;2.83;;;2.53;;
65753;SDS011;69207;47.502;18.940;2023-05-07T03:08:40;3.47;;;2.80;;
65753;SDS011;69207;47.502;18.940;2023-05-07T03:09:43;4.68;;;2.80;;
65753;SDS011;69207;47.502;18.940;2023-05-07T03:10:46;4.03;;;2.50;;
65753;SDS011;69207;47.502;18.940;2023-05-07T03:11:49;4.10;;;2.50;;
65753;SDS011;69207;47.502;18.940;2023-05-07T03:12:52;5.95;;;2.97;;
65753;SDS011;69207;47.502;18.940;2023-05-07T03:13:55;4.87;;;2.70;;
65753;SDS011;69207;47.502;18.940;2023-05-07T03:14:58;4.75;;;2.47;;
65753;SDS011;69207;47.502;18.940;2023-05-07T03:16:00;4.32;;;2.60;;
65753;SDS011;69207;47.502;18.940;2023-05-07T03:17:04;2.67;;;2.35;;
65753;SDS011;69207;47.502;18.940;2023-05-07T03:18:06;3.22;;;2.72;;
65753;SDS011;69207;47.502;18.940;2023-05-07T03:19:09;4.50;;;2.50;;
65753;SDS011;69207;47.502;18.940;2023-05-07T03:20:12;4.40;;;2.58;;
65753;SDS011;69207;47.502;18.940;2023-05-07T03:21:16;2.90;;;2.30;;
65753;SDS011;69207;47.502;18.940;2023-05-07T03:22:18;2.40;;;2.20;;
65753;SDS011;69207;47.502;18.940;2023-05-07T03:23:21;3.05;;;2.20;;
65753;SDS011;69207;47.502;18.940;2023-05-07T03:24:26;3.37;;;2.50;;
65753;SDS011;69207;47.502;18.940;2023-05-07T03:25:29;2.62;;;2.25;;
65753;SDS011;69207;47.502;18.940;2023-05-07T03:26:34;4.65;;;2.40;;
65753;SDS011;69207;47.502;18.940;2023-05-07T03:27:37;3.17;;;2.62;;
65753;SDS011;69207;47.502;18.940;2023-05-07T03:28:40;2.87;;;2.45;;
65753;SDS011;69207;47.502;18.940;2023-05-07T03:29:43;4.25;;;2.20;;
65753;SDS011;69207;47.502;18.940;2023-05-07T03:30:46;4.12;;;2.85;;
65753;SDS011;69207;47.502;18.940;2023-05-07T03:31:49;2.60;;;2.40;;
65753;SDS011;69207;47.502;18.940;2023-05-07T03:32:52;3.25;;;2.80;;
65753;SDS011;69207;47.502;18.940;2023-05-07T03:33:55;2.87;;;2.58;;
65753;SDS011;69207;47.502;18.940;2023-05-07T03:34:59;3.42;;;2.42;;
65753;SDS011;69207;47.502;18.940;2023-05-07T03:36:02;2.92;;;2.62;;
65753;SDS011;69207;47.502;18.940;2023-05-07T03:37:05;2.92;;;2.15;;
65753;SDS011;69207;47.502;18.940;2023-05-07T03:38:08;3.00;;;2.53;;
65753;SDS011;69207;47.502;18.940;2023-05-07T03:39:11;3.05;;;2.37;;
65753;SDS011;69207;47.502;18.940;2023-05-07T03:40:14;3.85;;;2.47;;
65753;SDS011;69207;47.502;18.940;2023-05-07T03:41:16;4.18;;;2.90;;
65753;SDS011;69207;47.502;18.940;2023-05-07T03:42:19;2.60;;;2.40;;
65753;SDS011;69207;47.502;18.940;2023-05-07T03:43:22;2.53;;;2.33;;
65753;SDS011;69207;47.502;18.940;2023-05-07T03:44:25;3.87;;;2.30;;
65753;SDS011;69207;47.502;18.940;2023-05-07T03:45:27;3.37;;;2.22;;
65753;SDS011;69207;47.502;18.940;2023-05-07T03:46:30;2.42;;;2.22;;
65753;SDS011;69207;47.502;18.940;2023-05-07T03:47:35;3.95;;;2.45;;
65753;SDS011;69207;47.502;18.940;2023-05-07T03:48:38;2.90;;;1.98;;
65753;SDS011;69207;47.502;18.940;2023-05-07T03:49:41;2.60;;;2.37;;
65753;SDS011;69207;47.502;18.940;2023-05-07T03:50:44;3.00;;;2.30;;
65753;SDS011;69207;47.502;18.940;2023-05-07T03:51:46;2.60;;;2.28;;
65753;SDS011;69207;47.502;18.940;2023-05-07T03:52:49;2.67;;;2.47;;
65753;SDS011;69207;47.502;18.940;2023-05-07T03:53:52;3.25;;;2.70;;
65753;SDS011;69207;47.502;18.940;2023-05-07T03:54:55;3.75;;;3.00;;
65753;SDS011;69207;47.502;18.940;2023-05-07T03:55:58;2.95;;;2.65;;
65753;SDS011;69207;47.502;18.940;2023-05-07T03:57:00;3.17;;;2.62;;
65753;SDS011;69207;47.502;18.940;2023-05-07T03:58:03;4.82;;;2.70;;
65753;SDS011;69207;47.502;18.940;2023-05-07T03:59:07;4.05;;;2.87;;
65753;SDS011;69207;47.502;18.940;2023-05-07T04:00:10;3.40;;;2.80;;
65753;SDS011;69207;47.502;18.940;2023-05-07T04:01:13;3.28;;;2.85;;
65753;SDS011;69207;47.502;18.940;2023-05-07T04:02:16;4.57;;;3.12;;
65753;SDS011;69207;47.502;18.940;2023-05-07T04:03:20;2.83;;;2.53;;
65753;SDS011;69207;47.502;18.940;2023-05-07T04:04:23;3.53;;;3.08;;
65753;SDS011;69207;47.502;18.940;2023-05-07T04:05:25;3.35;;;2.80;;
65753;SDS011;69207;47.502;18.940;2023-05-07T04:06:28;4.35;;;3.12;;
65753;SDS011;69207;47.502;18.940;2023-05-07T04:07:31;3.53;;;2.83;;
65753;SDS011;69207;47.502;18.940;2023-05-07T04:08:34;3.50;;;3.05;;
65753;SDS011;69207;47.502;18.940;2023-05-07T04:09:37;2.95;;;2.65;;
65753;SDS011;69207;47.502;18.940;2023-05-07T04:10:39;3.85;;;2.90;;
65753;SDS011;69207;47.502;18.940;2023-05-07T04:11:42;3.42;;;3.00;;
65753;SDS011;69207;47.502;18.940;2023-05-07T04:12:45;2.87;;;2.58;;
65753;SDS011;69207;47.502;18.940;2023-05-07T04:13:48;2.97;;;2.67;;
65753;SDS011;69207;47.502;18.940;2023-05-07T04:14:51;3.97;;;3.12;;
65753;SDS011;69207;47.502;18.940;2023-05-07T04:15:54;3.60;;;3.08;;
65753;SDS011;69207;47.502;18.940;2023-05-07T04:16:58;3.35;;;3.05;;
65753;SDS011;69207;47.502;18.940;2023-05-07T04:18:01;3.00;;;2.70;;
65753;SDS011;69207;47.502;18.940;2023-05-07T04:19:04;5.32;;;2.97;;
65753;SDS011;69207;47.502;18.940;2023-05-07T04:20:08;3.20;;;2.75;;
65753;SDS011;69207;47.502;18.940;2023-05-07T04:21:16;3.22;;;2.78;;
65753;SDS011;69207;47.502;18.940;2023-05-07T04:22:23;4.43;;;2.90;;
65753;SDS011;69207;47.502;18.940;2023-05-07T04:23:26;4.22;;;3.12;;
65753;SDS011;69207;47.502;18.940;2023-05-07T04:24:32;2.78;;;2.53;;
65753;SDS011;69207;47.502;18.940;2023-05-07T04:25:35;2.80;;;2.60;;
65753;SDS011;69207;47.502;18.940;2023-05-07T04:26:38;3.85;;;2.90;;
65753;SDS011;69207;47.502;18.940;2023-05-07T04:27:40;3.72;;;3.03;;
65753;SDS011;69207;47.502;18.940;2023-05-07T04:28:43;3.42;;;3.08;;
65753;SDS011;69207;47.502;18.940;2023-05-07T04:29:46;2.85;;;2.60;;
65753;SDS011;69207;47.502;18.940;2023-05-07T04:30:49;3.62;;;2.70;;
65753;SDS011;69207;47.502;18.940;2023-05-07T04:31:53;3.45;;;2.47;;
65753;SDS011;69207;47.502;18.940;2023-05-07T04:32:58;3.85;;;2.37;;
65753;SDS011;69207;47.502;18.940;2023-05-07T04:34:00;3.85;;;2.60;;
65753;SDS011;69207;47.502;18.940;2023-05-07T04:35:04;2.87;;;2.50;;
65753;SDS011;69207;47.502;18.940;2023-05-07T04:36:07;3.90;;;2.45;;
65753;SDS011;69207;47.502;18.940;2023-05-07T04:37:10;2.87;;;2.58;;
65753;SDS011;69207;47.502;18.940;2023-05-07T04:38:13;11.88;;;2.62;;
65753;SDS011;69207;47.502;18.940;2023-05-07T04:39:15;3.17;;;2.50;;
65753;SDS011;69207;47.502;18.940;2023-05-07T04:40:19;3.42;;;2.62;;
65753;SDS011;69207;47.502;18.940;2023-05-07T04:41:22;4.82;;;2.50;;
65753;SDS011;69207;47.502;18.940;2023-05-07T04:42:25;2.22;;;2.05;;
65753;SDS011;69207;47.502;18.940;2023-05-07T04:43:28;3.50;;;2.40;;
65753;SDS011;69207;47.502;18.940;2023-05-07T04:44:30;2.92;;;2.60;;
65753;SDS011;69207;47.502;18.940;2023-05-07T04:45:33;3.33;;;2.45;;
65753;SDS011;69207;47.502;18.940;2023-05-07T04:46:36;2.70;;;2.40;;
65753;SDS011;69207;47.502;18.940;2023-05-07T04:47:39;2.58;;;2.15;;
65753;SDS011;69207;47.502;18.940;2023-05-07T04:48:42;3.22;;;2.17;;
65753;SDS011;69207;47.502;18.940;2023-05-07T04:49:45;2.47;;;2.28;;
65753;SDS011;69207;47.502;18.940;2023-05-07T04:50:51;3.42;;;2.30;;
65753;SDS011;69207;47.502;18.940;2023-05-07T04:51:54;2.72;;;2.08;;
65753;SDS011;69207;47.502;18.940;2023-05-07T04:52:57;2.50;;;2.30;;
65753;SDS011;69207;47.502;18.940;2023-05-07T04:54:00;2.37;;;2.17;;
65753;SDS011;69207;47.502;18.940;2023-05-07T04:55:03;2.65;;;2.40;;
65753;SDS011;69207;47.502;18.940;2023-05-07T04:56:05;3.75;;;2.03;;
65753;SDS011;69207;47.502;18.940;2023-05-07T04:57:08;2.45;;;2.25;;
65753;SDS011;69207;47.502;18.940;2023-05-07T04:58:11;2.62;;;2.33;;
65753;SDS011;69207;47.502;18.940;2023-05-07T04:59:14;2.90;;;1.92;;
65753;SDS011;69207;47.502;18.940;2023-05-07T05:00:17;3.10;;;2.30;;
65753;SDS011;69207;47.502;18.940;2023-05-07T05:01:22;2.70;;;2.30;;
65753;SDS011;69207;47.502;18.940;2023-05-07T05:02:24;2.25;;;2.10;;
65753;SDS011;69207;47.502;18.940;2023-05-07T05:03:27;2.40;;;2.10;;
65753;SDS011;69207;47.502;18.940;2023-05-07T05:04:30;2.40;;;2.17;;
65753;SDS011;69207;47.502;18.940;2023-05-07T05:05:33;2.22;;;2.03;;
65753;SDS011;69207;47.502;18.940;2023-05-07T05:06:36;2.20;;;2.00;;
65753;SDS011;69207;47.502;18.940;2023-05-07T05:07:38;3.85;;;2.17;;
65753;SDS011;69207;47.502;18.940;2023-05-07T05:08:42;2.20;;;2.00;;
65753;SDS011;69207;47.502;18.940;2023-05-07T05:09:45;4.43;;;2.12;;
65753;SDS011;69207;47.502;18.940;2023-05-07T05:10:47;2.75;;;2.28;;
65753;SDS011;69207;47.502;18.940;2023-05-07T05:11:52;2.33;;;2.12;;
65753;SDS011;69207;47.502;18.940;2023-05-07T05:12:55;2.30;;;2.10;;
65753;SDS011;69207;47.502;18.940;2023-05-07T05:13:59;2.05;;;1.85;;
65753;SDS011;69207;47.502;18.940;2023-05-07T05:15:02;3.72;;;1.60;;
65753;SDS011;69207;47.502;18.940;2023-05-07T05:16:06;3.22;;;1.87;;
65753;SDS011;69207;47.502;18.940;2023-05-07T05:17:09;4.53;;;1.80;;
65753;SDS011;69207;47.502;18.940;2023-05-07T05:18:12;1.92;;;1.80;;
65753;SDS011;69207;47.502;18.940;2023-05-07T05:19:14;2.65;;;1.73;;
65753;SDS011;69207;47.502;18.940;2023-05-07T05:20:18;3.87;;;1.65;;
65753;SDS011;69207;47.502;18.940;2023-05-07T05:21:21;1.80;;;1.70;;
65753;SDS011;69207;47.502;18.940;2023-05-07T05:22:24;2.03;;;1.83;;
65753;SDS011;69207;47.502;18.940;2023-05-07T05:23:28;2.40;;;1.90;;
65753;SDS011;69207;47.502;18.940;2023-05-07T05:24:31;2.65;;;1.90;;
65753;SDS011;69207;47.502;18.940;2023-05-07T05:25:34;2.15;;;1.83;;
65753;SDS011;69207;47.502;18.940;2023-05-07T05:26:37;1.80;;;1.70;;
65753;SDS011;69207;47.502;18.940;2023-05-07T05:27:40;2.00;;;1.80;;
65753;SDS011;69207;47.502;18.940;2023-05-07T05:28:42;2.28;;;1.83;;
65753;SDS011;69207;47.502;18.940;2023-05-07T05:29:45;2.15;;;1.90;;
65753;SDS011;69207;47.502;18.940;2023-05-07T05:30:48;2.03;;;1.65;;
65753;SDS011;69207;47.502;18.940;2023-05-07T05:31:51;3.28;;;1.92;;
65753;SDS011;69207;47.502;18.940;2023-05-07T05:32:54;2.00;;;1.80;;
65753;SDS011;69207;47.502;18.940;2023-05-07T05:33:57;3.03;;;1.80;;
65753;SDS011;69207;47.502;18.940;2023-05-07T05:34:59;2.80;;;1.65;;
65753;SDS011;69207;47.502;18.940;2023-05-07T05:36:02;1.98;;;1.87;;
65753;SDS011;69207;47.502;18.940;2023-05-07T05:37:06;3.55;;;1.70;;
65753;SDS011;69207;47.502;18.940;2023-05-07T05:38:09;2.50;;;1.62;;
65753;SDS011;69207;47.502;18.940;2023-05-07T05:39:12;1.77;;;1.67;;
65753;SDS011;69207;47.502;18.940;2023-05-07T05:40:15;1.77;;;1.67;;
65753;SDS011;69207;47.502;18.940;2023-05-07T05:41:18;3.20;;;1.62;;
65753;SDS011;69207;47.502;18.940;2023-05-07T05:42:20;4.07;;;1.50;;
65753;SDS011;69207;47.502;18.940;2023-05-07T05:43:24;1.87;;;1.77;;
65753;SDS011;69207;47.502;18.940;2023-05-07T05:44:26;2.40;;;1.80;;
65753;SDS011;69207;47.502;18.940;2023-05-07T05:45:29;3.05;;;1.90;;
65753;SDS011;69207;47.502;18.940;2023-05-07T05:46:32;2.50;;;1.98;;
65753;SDS011;69207;47.502;18.940;2023-05-07T05:47:38;2.00;;;1.80;;
65753;SDS011;69207;47.502;18.940;2023-05-07T05:48:41;2.03;;;1.83;;
65753;SDS011;69207;47.502;18.940;2023-05-07T05:49:44;2.00;;;1.90;;
65753;SDS011;69207;47.502;18.940;2023-05-07T05:50:47;2.10;;;1.90;;
65753;SDS011;69207;47.502;18.940;2023-05-07T05:51:50;2.10;;;1.90;;
65753;SDS011;69207;47.502;18.940;2023-05-07T05:52:52;2.17;;;1.62;;
65753;SDS011;69207;47.502;18.940;2023-05-07T05:53:55;1.85;;;1.75;;
65753;SDS011;69207;47.502;18.940;2023-05-07T05:54:58;2.30;;;2.05;;
65753;SDS011;69207;47.502;18.940;2023-05-07T05:56:00;2.05;;;1.85;;
65753;SDS011;69207;47.502;18.940;2023-05-07T05:57:04;1.95;;;1.73;;
65753;SDS011;69207;47.502;18.940;2023-05-07T05:58:07;2.20;;;1.40;;
65753;SDS011;69207;47.502;18.940;2023-05-07T05:59:11;1.65;;;1.20;;
65753;SDS011;69207;47.502;18.940;2023-05-07T06:00:14;1.45;;;1.35;;
65753;SDS011;69207;47.502;18.940;2023-05-07T06:01:18;1.30;;;1.20;;
65753;SDS011;69207;47.502;18.940;2023-05-07T06:02:21;2.00;;;1.30;;
65753;SDS011;69207;47.502;18.940;2023-05-07T06:03:24;2.10;;;1.20;;
65753;SDS011;69207;47.502;18.940;2023-05-07T06:04:27;1.60;;;1.50;;
65753;SDS011;69207;47.502;18.940;2023-05-07T06:05:29;1.27;;;1.15;;
65753;SDS011;69207;47.502;18.940;2023-05-07T06:06:32;1.23;;;1.12;;
65753;SDS011;69207;47.502;18.940;2023-05-07T06:07:35;2.10;;;1.10;;
65753;SDS011;69207;47.502;18.940;2023-05-07T06:08:38;1.77;;;1.30;;
65753;SDS011;69207;47.502;18.940;2023-05-07T06:09:41;1.10;;;1.00;;
65753;SDS011;69207;47.502;18.940;2023-05-07T06:10:46;1.48;;;1.10;;
65753;SDS011;69207;47.502;18.940;2023-05-07T06:11:49;1.45;;;1.20;;
65753;SDS011;69207;47.502;18.940;2023-05-07T06:12:52;1.20;;;1.10;;
65753;SDS011;69207;47.502;18.940;2023-05-07T06:13:54;1.55;;;1.45;;
65753;SDS011;69207;47.502;18.940;2023-05-07T06:14:57;1.50;;;1.37;;